sensor_id;sensor_type;location;lat;lon;timestamp;temperature;humidity
18876;DHT22;9570;50.854;13.778;2023-04-24T00:00:08;12.50;99.90
18876;DHT22;9570;50.854;13.778;2023-04-24T00:02:40;12.50;99.90
18876;DHT22;9570;50.854;13.778;2023-04-24T00:05:07;12.40;99.90
18876;DHT22;9570;50.854;13.778;2023-04-24T00:07:33;12.40;99.90
18876;DHT22;9570;50.854;13.778;2023-04-24T00:09:59;12.50;99.90
18876;DHT22;9570;50.854;13.778;2023-04-24T00:12:25;12.40;99.90
18876;DHT22;9570;50.854;13.778;2023-04-24T00:14:51;12.50;99.90
18876;DHT22;9570;50.854;13.778;2023-04-24T00:17:17;12.40;99.90
18876;DHT22;9570;50.854;13.778;2023-04-24T00:19:45;12.60;99.90
18876;DHT22;9570;50.854;13.778;2023-04-24T00:22:11;12.60;99.90
18876;DHT22;9570;50.854;13.778;2023-04-24T00:24:38;12.60;99.90
18876;DHT22;9570;50.854;13.778;2023-04-24T00:27:04;12.70;99.90
18876;DHT22;9570;50.854;13.778;2023-04-24T00:29:29;12.90;99.90
18876;DHT22;9570;50.854;13.778;2023-04-24T00:31:55;13.00;99.90
18876;DHT22;9570;50.854;13.778;2023-04-24T00:34:20;13.00;99.90
18876;DHT22;9570;50.854;13.778;2023-04-24T00:36:46;13.00;99.90
18876;DHT22;9570;50.854;13.778;2023-04-24T00:39:11;13.00;99.90
18876;DHT22;9570;50.854;13.778;2023-04-24T00:41:37;13.10;99.90
18876;DHT22;9570;50.854;13.778;2023-04-24T00:44:02;13.20;99.90
18876;DHT22;9570;50.854;13.778;2023-04-24T00:46:28;13.10;99.90
18876;DHT22;9570;50.854;13.778;2023-04-24T00:48:55;13.00;99.90
18876;DHT22;9570;50.854;13.778;2023-04-24T00:51:21;13.00;99.90
18876;DHT22;9570;50.854;13.778;2023-04-24T00:53:46;13.10;99.90
18876;DHT22;9570;50.854;13.778;2023-04-24T00:56:12;13.20;99.90
18876;DHT22;9570;50.854;13.778;2023-04-24T00:58:38;13.20;99.90
18876;DHT22;9570;50.854;13.778;2023-04-24T01:01:04;13.20;99.90
18876;DHT22;9570;50.854;13.778;2023-04-24T01:03:32;13.20;99.90
18876;DHT22;9570;50.854;13.778;2023-04-24T01:05:58;13.10;99.90
18876;DHT22;9570;50.854;13.778;2023-04-24T01:08:24;13.20;99.90
18876;DHT22;9570;50.854;13.778;2023-04-24T01:10:52;13.10;99.90
18876;DHT22;9570;50.854;13.778;2023-04-24T01:13:18;13.20;99.90
18876;DHT22;9570;50.854;13.778;2023-04-24T01:15:44;13.10;99.90
18876;DHT22;9570;50.854;13.778;2023-04-24T01:18:10;13.30;99.90
18876;DHT22;9570;50.854;13.778;2023-04-24T01:20:37;13.40;99.90
18876;DHT22;9570;50.854;13.778;2023-04-24T01:23:05;13.50;99.90
18876;DHT22;9570;50.854;13.778;2023-04-24T01:25:31;13.50;99.90
18876;DHT22;9570;50.854;13.778;2023-04-24T01:27:57;13.60;99.90
18876;DHT22;9570;50.854;13.778;2023-04-24T01:30:22;13.50;99.90
18876;DHT22;9570;50.854;13.778;2023-04-24T01:32:48;13.60;99.90
18876;DHT22;9570;50.854;13.778;2023-04-24T01:35:14;13.60;99.90
18876;DHT22;9570;50.854;13.778;2023-04-24T01:37:39;13.50;99.90
18876;DHT22;9570;50.854;13.778;2023-04-24T01:40:06;13.40;99.90
18876;DHT22;9570;50.854;13.778;2023-04-24T01:42:32;13.50;99.90
18876;DHT22;9570;50.854;13.778;2023-04-24T01:44:59;13.30;99.90
18876;DHT22;9570;50.854;13.778;2023-04-24T01:47:25;13.50;99.90
18876;DHT22;9570;50.854;13.778;2023-04-24T01:49:51;13.40;99.90
18876;DHT22;9570;50.854;13.778;2023-04-24T01:52:17;13.50;99.90
18876;DHT22;9570;50.854;13.778;2023-04-24T01:54:44;13.50;99.90
18876;DHT22;9570;50.854;13.778;2023-04-24T01:57:10;13.60;99.90
18876;DHT22;9570;50.854;13.778;2023-04-24T01:59:35;13.60;99.90
18876;DHT22;9570;50.854;13.778;2023-04-24T02:02:02;13.60;99.90
18876;DHT22;9570;50.854;13.778;2023-04-24T02:04:28;13.50;99.90
18876;DHT22;9570;50.854;13.778;2023-04-24T02:06:53;13.50;99.90
18876;DHT22;9570;50.854;13.778;2023-04-24T02:09:19;13.30;99.90
18876;DHT22;9570;50.854;13.778;2023-04-24T02:11:44;13.30;99.90
18876;DHT22;9570;50.854;13.778;2023-04-24T02:14:10;13.10;99.90
18876;DHT22;9570;50.854;13.778;2023-04-24T02:16:35;13.10;99.90
18876;DHT22;9570;50.854;13.778;2023-04-24T02:19:01;13.10;99.90
18876;DHT22;9570;50.854;13.778;2023-04-24T02:21:27;13.00;99.90
18876;DHT22;9570;50.854;13.778;2023-04-24T02:23:53;13.00;99.90
18876;DHT22;9570;50.854;13.778;2023-04-24T02:26:19;13.00;99.90
18876;DHT22;9570;50.854;13.778;2023-04-24T02:28:44;12.80;99.90
18876;DHT22;9570;50.854;13.778;2023-04-24T02:31:10;12.70;99.90
18876;DHT22;9570;50.854;13.778;2023-04-24T02:33:35;12.70;99.90
18876;DHT22;9570;50.854;13.778;2023-04-24T02:36:01;12.80;99.90
18876;DHT22;9570;50.854;13.778;2023-04-24T02:38:28;12.70;99.90
18876;DHT22;9570;50.854;13.778;2023-04-24T02:40:53;12.60;99.90
18876;DHT22;9570;50.854;13.778;2023-04-24T02:43:19;12.60;99.90
18876;DHT22;9570;50.854;13.778;2023-04-24T02:45:45;12.60;99.90
18876;DHT22;9570;50.854;13.778;2023-04-24T02:48:10;12.70;99.90
18876;DHT22;9570;50.854;13.778;2023-04-24T02:50:36;12.70;99.90
18876;DHT22;9570;50.854;13.778;2023-04-24T02:53:01;12.70;99.90
18876;DHT22;9570;50.854;13.778;2023-04-24T02:55:27;12.60;99.90
18876;DHT22;9570;50.854;13.778;2023-04-24T02:57:53;12.60;99.90
18876;DHT22;9570;50.854;13.778;2023-04-24T03:00:19;12.70;99.90
18876;DHT22;9570;50.854;13.778;2023-04-24T03:02:44;12.60;99.90
18876;DHT22;9570;50.854;13.778;2023-04-24T03:05:10;12.50;99.90
18876;DHT22;9570;50.854;13.778;2023-04-24T03:07:37;12.50;99.90
18876;DHT22;9570;50.854;13.778;2023-04-24T03:10:03;12.60;99.90
18876;DHT22;9570;50.854;13.778;2023-04-24T03:12:29;12.60;99.90
18876;DHT22;9570;50.854;13.778;2023-04-24T03:14:54;12.60;99.90
18876;DHT22;9570;50.854;13.778;2023-04-24T03:17:20;12.50;99.90
18876;DHT22;9570;50.854;13.778;2023-04-24T03:19:45;12.60;99.90
18876;DHT22;9570;50.854;13.778;2023-04-24T03:22:11;12.60;99.90
18876;DHT22;9570;50.854;13.778;2023-04-24T03:24:37;12.60;99.90
18876;DHT22;9570;50.854;13.778;2023-04-24T03:27:02;12.60;99.90
18876;DHT22;9570;50.854;13.778;2023-04-24T03:29:28;12.60;99.90
18876;DHT22;9570;50.854;13.778;2023-04-24T03:31:53;12.50;99.90
18876;DHT22;9570;50.854;13.778;2023-04-24T03:34:19;12.30;99.90
18876;DHT22;9570;50.854;13.778;2023-04-24T03:36:44;12.40;99.90
18876;DHT22;9570;50.854;13.778;2023-04-24T03:39:12;12.50;99.90
18876;DHT22;9570;50.854;13.778;2023-04-24T03:41:38;12.50;99.90
18876;DHT22;9570;50.854;13.778;2023-04-24T03:44:03;12.40;99.90
18876;DHT22;9570;50.854;13.778;2023-04-24T03:46:29;12.40;99.90
18876;DHT22;9570;50.854;13.778;2023-04-24T03:48:55;12.50;99.90
18876;DHT22;9570;50.854;13.778;2023-04-24T03:51:20;12.40;99.90
18876;DHT22;9570;50.854;13.778;2023-04-24T03:53:46;12.20;99.90
18876;DHT22;9570;50.854;13.778;2023-04-24T03:56:11;12.20;99.90
18876;DHT22;9570;50.854;13.778;2023-04-24T03:58:37;12.30;99.90
18876;DHT22;9570;50.854;13.778;2023-04-24T04:01:02;12.30;99.90
18876;DHT22;9570;50.854;13.778;2023-04-24T04:03:28;12.30;99.90
18876;DHT22;9570;50.854;13.778;2023-04-24T04:05:53;12.20;99.90
18876;DHT22;9570;50.854;13.778;2023-04-24T04:08:19;12.30;99.90
18876;DHT22;9570;50.854;13.778;2023-04-24T04:10:45;12.20;99.90
18876;DHT22;9570;50.854;13.778;2023-04-24T04:13:10;12.30;99.90
18876;DHT22;9570;50.854;13.778;2023-04-24T04:15:36;12.40;99.90
18876;DHT22;9570;50.854;13.778;2023-04-24T04:18:01;12.60;99.90
18876;DHT22;9570;50.854;13.778;2023-04-24T04:20:27;12.60;99.90
18876;DHT22;9570;50.854;13.778;2023-04-24T04:22:53;12.50;99.90
18876;DHT22;9570;50.854;13.778;2023-04-24T04:25:18;12.60;99.90
18876;DHT22;9570;50.854;13.778;2023-04-24T04:27:45;12.60;99.90
18876;DHT22;9570;50.854;13.778;2023-04-24T04:30:13;12.50;99.90
18876;DHT22;9570;50.854;13.778;2023-04-24T04:32:38;12.40;99.90
18876;DHT22;9570;50.854;13.778;2023-04-24T04:35:04;12.50;99.90
18876;DHT22;9570;50.854;13.778;2023-04-24T04:37:33;12.60;99.90
18876;DHT22;9570;50.854;13.778;2023-04-24T04:39:59;12.50;99.90
18876;DHT22;9570;50.854;13.778;2023-04-24T04:42:26;12.60;99.90
18876;DHT22;9570;50.854;13.778;2023-04-24T04:44:52;12.60;99.90
18876;DHT22;9570;50.854;13.778;2023-04-24T04:47:18;12.50;99.90
18876;DHT22;9570;50.854;13.778;2023-04-24T04:49:46;12.70;99.90
18876;DHT22;9570;50.854;13.778;2023-04-24T04:52:13;12.70;99.90
18876;DHT22;9570;50.854;13.778;2023-04-24T04:54:38;12.60;99.90
18876;DHT22;9570;50.854;13.778;2023-04-24T04:57:04;12.70;99.90
18876;DHT22;9570;50.854;13.778;2023-04-24T04:59:30;12.70;99.90
18876;DHT22;9570;50.854;13.778;2023-04-24T05:01:55;12.90;99.90
18876;DHT22;9570;50.854;13.778;2023-04-24T05:04:21;12.70;99.90
18876;DHT22;9570;50.854;13.778;2023-04-24T05:06:46;12.70;99.90
18876;DHT22;9570;50.854;13.778;2023-04-24T05:09:12;12.60;99.90
18876;DHT22;9570;50.854;13.778;2023-04-24T05:11:38;12.60;99.90
18876;DHT22;9570;50.854;13.778;2023-04-24T05:14:03;12.60;99.90
18876;DHT22;9570;50.854;13.778;2023-04-24T05:16:29;12.60;99.90
18876;DHT22;9570;50.854;13.778;2023-04-24T05:18:55;12.60;99.90
18876;DHT22;9570;50.854;13.778;2023-04-24T05:21:21;12.50;99.90
18876;DHT22;9570;50.854;13.778;2023-04-24T05:23:46;12.60;99.90
18876;DHT22;9570;50.854;13.778;2023-04-24T05:26:13;12.70;99.90
18876;DHT22;9570;50.854;13.778;2023-04-24T05:28:38;12.60;99.90
18876;DHT22;9570;50.854;13.778;2023-04-24T05:31:04;12.60;99.90
18876;DHT22;9570;50.854;13.778;2023-04-24T05:33:29;12.60;99.90
18876;DHT22;9570;50.854;13.778;2023-04-24T05:35:55;12.50;99.90
18876;DHT22;9570;50.854;13.778;2023-04-24T05:38:21;12.60;99.90
18876;DHT22;9570;50.854;13.778;2023-04-24T05:40:46;12.80;99.90
18876;DHT22;9570;50.854;13.778;2023-04-24T05:43:12;12.70;99.90
18876;DHT22;9570;50.854;13.778;2023-04-24T05:45:38;12.70;99.90
18876;DHT22;9570;50.854;13.778;2023-04-24T05:48:04;12.60;99.90
18876;DHT22;9570;50.854;13.778;2023-04-24T05:50:29;12.70;99.90
18876;DHT22;9570;50.854;13.778;2023-04-24T05:52:55;12.70;99.90
18876;DHT22;9570;50.854;13.778;2023-04-24T05:55:23;12.60;99.90
18876;DHT22;9570;50.854;13.778;2023-04-24T05:57:49;12.60;99.90
18876;DHT22;9570;50.854;13.778;2023-04-24T06:00:15;12.80;99.90
18876;DHT22;9570;50.854;13.778;2023-04-24T06:02:41;12.90;99.90
18876;DHT22;9570;50.854;13.778;2023-04-24T06:05:07;13.00;99.90
18876;DHT22;9570;50.854;13.778;2023-04-24T06:07:33;13.20;99.90
18876;DHT22;9570;50.854;13.778;2023-04-24T06:09:59;13.20;99.90
18876;DHT22;9570;50.854;13.778;2023-04-24T06:12:25;13.20;99.90
18876;DHT22;9570;50.854;13.778;2023-04-24T06:14:51;13.40;99.90
18876;DHT22;9570;50.854;13.778;2023-04-24T06:17:16;13.30;99.90
18876;DHT22;9570;50.854;13.778;2023-04-24T06:19:42;13.40;99.90
18876;DHT22;9570;50.854;13.778;2023-04-24T06:22:07;13.30;99.90
18876;DHT22;9570;50.854;13.778;2023-04-24T06:24:34;13.30;99.90
18876;DHT22;9570;50.854;13.778;2023-04-24T06:26:59;13.50;99.90
18876;DHT22;9570;50.854;13.778;2023-04-24T06:29:25;13.50;99.90
18876;DHT22;9570;50.854;13.778;2023-04-24T06:31:51;13.60;99.90
18876;DHT22;9570;50.854;13.778;2023-04-24T06:34:16;13.60;99.90
18876;DHT22;9570;50.854;13.778;2023-04-24T06:36:42;13.50;99.90
18876;DHT22;9570;50.854;13.778;2023-04-24T06:39:07;13.40;99.90
18876;DHT22;9570;50.854;13.778;2023-04-24T06:41:33;13.40;99.90
18876;DHT22;9570;50.854;13.778;2023-04-24T06:43:58;13.60;99.90
18876;DHT22;9570;50.854;13.778;2023-04-24T06:46:24;13.50;99.90
18876;DHT22;9570;50.854;13.778;2023-04-24T06:48:52;13.60;99.90
18876;DHT22;9570;50.854;13.778;2023-04-24T06:51:17;13.60;99.90
18876;DHT22;9570;50.854;13.778;2023-04-24T06:53:43;13.60;99.90
18876;DHT22;9570;50.854;13.778;2023-04-24T06:56:09;13.80;99.90
18876;DHT22;9570;50.854;13.778;2023-04-24T06:58:34;13.80;99.90
18876;DHT22;9570;50.854;13.778;2023-04-24T07:01:00;13.70;99.90
18876;DHT22;9570;50.854;13.778;2023-04-24T07:03:25;13.50;99.90
18876;DHT22;9570;50.854;13.778;2023-04-24T07:05:51;13.50;99.90
18876;DHT22;9570;50.854;13.778;2023-04-24T07:08:16;13.50;99.90
18876;DHT22;9570;50.854;13.778;2023-04-24T07:10:43;13.60;99.90
18876;DHT22;9570;50.854;13.778;2023-04-24T07:13:10;13.60;99.90
18876;DHT22;9570;50.854;13.778;2023-04-24T07:15:35;13.90;99.90
18876;DHT22;9570;50.854;13.778;2023-04-24T07:18:01;13.70;99.90
18876;DHT22;9570;50.854;13.778;2023-04-24T07:20:26;13.70;99.90
18876;DHT22;9570;50.854;13.778;2023-04-24T07:22:52;13.60;99.90
18876;DHT22;9570;50.854;13.778;2023-04-24T07:25:19;13.40;99.90
18876;DHT22;9570;50.854;13.778;2023-04-24T07:27:44;13.30;99.90
18876;DHT22;9570;50.854;13.778;2023-04-24T07:30:10;13.40;99.90
18876;DHT22;9570;50.854;13.778;2023-04-24T07:32:36;13.50;99.90
18876;DHT22;9570;50.854;13.778;2023-04-24T07:35:01;13.40;99.90
18876;DHT22;9570;50.854;13.778;2023-04-24T07:37:28;13.70;99.90
18876;DHT22;9570;50.854;13.778;2023-04-24T07:39:54;13.80;99.90
18876;DHT22;9570;50.854;13.778;2023-04-24T07:42:19;13.80;99.90
18876;DHT22;9570;50.854;13.778;2023-04-24T07:44:45;13.80;99.90
18876;DHT22;9570;50.854;13.778;2023-04-24T07:47:12;13.90;99.90
18876;DHT22;9570;50.854;13.778;2023-04-24T07:49:41;14.10;99.90
18876;DHT22;9570;50.854;13.778;2023-04-24T07:52:06;14.10;99.90
18876;DHT22;9570;50.854;13.778;2023-04-24T07:54:32;14.10;99.90
18876;DHT22;9570;50.854;13.778;2023-04-24T07:56:57;14.20;99.90
18876;DHT22;9570;50.854;13.778;2023-04-24T07:59:23;14.10;99.90
18876;DHT22;9570;50.854;13.778;2023-04-24T08:01:48;14.20;99.90
18876;DHT22;9570;50.854;13.778;2023-04-24T08:04:14;14.20;99.90
18876;DHT22;9570;50.854;13.778;2023-04-24T08:06:40;14.20;99.90
18876;DHT22;9570;50.854;13.778;2023-04-24T08:09:05;14.30;99.90
18876;DHT22;9570;50.854;13.778;2023-04-24T08:11:31;14.40;99.90
18876;DHT22;9570;50.854;13.778;2023-04-24T08:13:57;14.20;99.90
18876;DHT22;9570;50.854;13.778;2023-04-24T08:16:22;14.30;99.90
18876;DHT22;9570;50.854;13.778;2023-04-24T08:18:49;14.40;99.90
18876;DHT22;9570;50.854;13.778;2023-04-24T08:21:15;14.30;99.90
18876;DHT22;9570;50.854;13.778;2023-04-24T08:23:42;14.50;99.90
18876;DHT22;9570;50.854;13.778;2023-04-24T08:26:08;14.50;99.90
18876;DHT22;9570;50.854;13.778;2023-04-24T08:28:33;14.50;99.90
18876;DHT22;9570;50.854;13.778;2023-04-24T08:30:59;14.40;99.90
18876;DHT22;9570;50.854;13.778;2023-04-24T08:33:24;14.40;99.90
18876;DHT22;9570;50.854;13.778;2023-04-24T08:35:50;14.40;99.90
18876;DHT22;9570;50.854;13.778;2023-04-24T08:38:16;14.40;99.90
18876;DHT22;9570;50.854;13.778;2023-04-24T08:40:42;14.30;99.90
18876;DHT22;9570;50.854;13.778;2023-04-24T08:43:08;14.40;99.90
18876;DHT22;9570;50.854;13.778;2023-04-24T08:45:34;14.40;99.90
18876;DHT22;9570;50.854;13.778;2023-04-24T08:47:59;14.40;99.90
18876;DHT22;9570;50.854;13.778;2023-04-24T08:50:25;14.50;99.90
18876;DHT22;9570;50.854;13.778;2023-04-24T08:52:52;14.60;99.90
18876;DHT22;9570;50.854;13.778;2023-04-24T08:55:20;14.80;99.90
18876;DHT22;9570;50.854;13.778;2023-04-24T08:57:51;14.90;99.90
18876;DHT22;9570;50.854;13.778;2023-04-24T09:00:19;14.70;99.90
18876;DHT22;9570;50.854;13.778;2023-04-24T09:02:45;14.80;99.90
18876;DHT22;9570;50.854;13.778;2023-04-24T09:05:12;14.60;99.90
18876;DHT22;9570;50.854;13.778;2023-04-24T09:07:39;14.30;99.90
18876;DHT22;9570;50.854;13.778;2023-04-24T09:10:07;14.30;99.90
18876;DHT22;9570;50.854;13.778;2023-04-24T09:12:34;14.30;99.90
18876;DHT22;9570;50.854;13.778;2023-04-24T09:15:01;14.40;99.90
18876;DHT22;9570;50.854;13.778;2023-04-24T09:17:29;14.40;99.90
18876;DHT22;9570;50.854;13.778;2023-04-24T09:19:55;14.30;99.90
18876;DHT22;9570;50.854;13.778;2023-04-24T09:22:21;14.20;99.90
18876;DHT22;9570;50.854;13.778;2023-04-24T09:24:47;14.20;99.90
18876;DHT22;9570;50.854;13.778;2023-04-24T09:27:13;14.40;99.90
18876;DHT22;9570;50.854;13.778;2023-04-24T09:29:53;14.70;99.90
18876;DHT22;9570;50.854;13.778;2023-04-24T09:32:20;14.70;99.90
18876;DHT22;9570;50.854;13.778;2023-04-24T09:35:09;14.70;99.90
18876;DHT22;9570;50.854;13.778;2023-04-24T09:37:36;14.80;99.90
18876;DHT22;9570;50.854;13.778;2023-04-24T09:40:19;14.80;99.90
18876;DHT22;9570;50.854;13.778;2023-04-24T09:42:55;14.70;99.90
18876;DHT22;9570;50.854;13.778;2023-04-24T09:45:36;14.70;99.90
18876;DHT22;9570;50.854;13.778;2023-04-24T09:48:02;14.70;99.90
18876;DHT22;9570;50.854;13.778;2023-04-24T09:50:30;14.60;99.90
18876;DHT22;9570;50.854;13.778;2023-04-24T09:52:58;14.60;99.90
18876;DHT22;9570;50.854;13.778;2023-04-24T09:55:25;14.50;99.90
18876;DHT22;9570;50.854;13.778;2023-04-24T09:57:59;14.80;99.90
18876;DHT22;9570;50.854;13.778;2023-04-24T10:00:32;14.70;99.90
18876;DHT22;9570;50.854;13.778;2023-04-24T10:03:02;14.60;99.90
18876;DHT22;9570;50.854;13.778;2023-04-24T10:05:33;14.70;99.90
18876;DHT22;9570;50.854;13.778;2023-04-24T10:08:09;14.80;99.90
18876;DHT22;9570;50.854;13.778;2023-04-24T10:10:40;14.80;99.90
18876;DHT22;9570;50.854;13.778;2023-04-24T10:13:07;14.90;99.90
18876;DHT22;9570;50.854;13.778;2023-04-24T10:15:33;14.90;99.90
18876;DHT22;9570;50.854;13.778;2023-04-24T10:17:59;14.90;99.90
18876;DHT22;9570;50.854;13.778;2023-04-24T10:20:27;14.80;99.90
18876;DHT22;9570;50.854;13.778;2023-04-24T10:22:54;14.90;99.90
18876;DHT22;9570;50.854;13.778;2023-04-24T10:25:21;14.90;99.90
18876;DHT22;9570;50.854;13.778;2023-04-24T10:27:48;14.90;99.90
18876;DHT22;9570;50.854;13.778;2023-04-24T10:30:14;15.20;99.90
18876;DHT22;9570;50.854;13.778;2023-04-24T10:32:40;15.20;99.90
18876;DHT22;9570;50.854;13.778;2023-04-24T10:35:07;15.30;99.90
18876;DHT22;9570;50.854;13.778;2023-04-24T10:37:45;15.50;99.90
18876;DHT22;9570;50.854;13.778;2023-04-24T10:40:16;15.80;99.90
18876;DHT22;9570;50.854;13.778;2023-04-24T10:42:42;15.60;99.90
18876;DHT22;9570;50.854;13.778;2023-04-24T10:45:16;15.80;99.90
18876;DHT22;9570;50.854;13.778;2023-04-24T10:47:42;15.80;99.90
18876;DHT22;9570;50.854;13.778;2023-04-24T10:50:12;15.60;99.90
18876;DHT22;9570;50.854;13.778;2023-04-24T10:52:45;15.40;99.90
18876;DHT22;9570;50.854;13.778;2023-04-24T10:55:13;15.00;99.90
18876;DHT22;9570;50.854;13.778;2023-04-24T10:57:39;14.90;99.90
18876;DHT22;9570;50.854;13.778;2023-04-24T11:02:40;14.70;99.90
18876;DHT22;9570;50.854;13.778;2023-04-24T11:05:15;14.60;99.90
18876;DHT22;9570;50.854;13.778;2023-04-24T11:08:10;14.30;99.90
18876;DHT22;9570;50.854;13.778;2023-04-24T11:10:43;14.50;99.90
18876;DHT22;9570;50.854;13.778;2023-04-24T11:13:09;14.30;99.90
18876;DHT22;9570;50.854;13.778;2023-04-24T11:15:35;14.40;99.90
18876;DHT22;9570;50.854;13.778;2023-04-24T11:18:00;14.30;99.90
18876;DHT22;9570;50.854;13.778;2023-04-24T11:20:25;14.30;99.90
18876;DHT22;9570;50.854;13.778;2023-04-24T11:22:53;14.40;99.90
18876;DHT22;9570;50.854;13.778;2023-04-24T11:25:23;14.50;99.90
18876;DHT22;9570;50.854;13.778;2023-04-24T11:27:49;14.60;99.90
18876;DHT22;9570;50.854;13.778;2023-04-24T11:30:19;14.70;99.90
18876;DHT22;9570;50.854;13.778;2023-04-24T11:32:48;14.80;99.90
18876;DHT22;9570;50.854;13.778;2023-04-24T11:35:16;14.80;99.90
18876;DHT22;9570;50.854;13.778;2023-04-24T11:37:45;14.90;99.90
18876;DHT22;9570;50.854;13.778;2023-04-24T11:40:12;14.90;99.90
18876;DHT22;9570;50.854;13.778;2023-04-24T11:42:40;14.90;99.90
18876;DHT22;9570;50.854;13.778;2023-04-24T11:45:13;14.90;99.90
18876;DHT22;9570;50.854;13.778;2023-04-24T11:47:40;15.00;99.90
18876;DHT22;9570;50.854;13.778;2023-04-24T11:50:12;15.10;99.90
18876;DHT22;9570;50.854;13.778;2023-04-24T11:52:39;14.90;99.90
18876;DHT22;9570;50.854;13.778;2023-04-24T11:57:50;14.80;99.90
18876;DHT22;9570;50.854;13.778;2023-04-24T12:00:18;15.10;99.90
18876;DHT22;9570;50.854;13.778;2023-04-24T12:02:44;15.20;99.90
18876;DHT22;9570;50.854;13.778;2023-04-24T12:05:19;14.90;99.90
18876;DHT22;9570;50.854;13.778;2023-04-24T12:07:45;14.90;99.90
18876;DHT22;9570;50.854;13.778;2023-04-24T12:10:11;14.90;99.90
18876;DHT22;9570;50.854;13.778;2023-04-24T12:12:36;14.90;99.90
18876;DHT22;9570;50.854;13.778;2023-04-24T12:15:07;14.90;99.90
18876;DHT22;9570;50.854;13.778;2023-04-24T12:17:34;15.00;99.90
18876;DHT22;9570;50.854;13.778;2023-04-24T12:20:05;15.20;99.90
18876;DHT22;9570;50.854;13.778;2023-04-24T12:22:47;15.40;99.90
18876;DHT22;9570;50.854;13.778;2023-04-24T12:25:16;15.30;99.90
18876;DHT22;9570;50.854;13.778;2023-04-24T12:27:44;15.40;99.90
18876;DHT22;9570;50.854;13.778;2023-04-24T12:30:15;15.10;99.90
18876;DHT22;9570;50.854;13.778;2023-04-24T12:32:45;15.20;99.90
18876;DHT22;9570;50.854;13.778;2023-04-24T12:35:11;15.30;99.90
18876;DHT22;9570;50.854;13.778;2023-04-24T12:37:37;15.40;99.90
18876;DHT22;9570;50.854;13.778;2023-04-24T12:40:08;15.20;99.90
18876;DHT22;9570;50.854;13.778;2023-04-24T12:42:35;15.20;99.90
18876;DHT22;9570;50.854;13.778;2023-04-24T12:45:03;15.10;99.90
18876;DHT22;9570;50.854;13.778;2023-04-24T12:47:29;15.40;99.90
18876;DHT22;9570;50.854;13.778;2023-04-24T12:49:55;15.60;99.90
18876;DHT22;9570;50.854;13.778;2023-04-24T12:52:25;15.70;99.90
18876;DHT22;9570;50.854;13.778;2023-04-24T12:54:53;15.80;99.90
18876;DHT22;9570;50.854;13.778;2023-04-24T12:57:19;15.60;99.90
18876;DHT22;9570;50.854;13.778;2023-04-24T12:59:44;15.30;99.90
18876;DHT22;9570;50.854;13.778;2023-04-24T13:02:11;15.30;99.90
18876;DHT22;9570;50.854;13.778;2023-04-24T13:04:36;15.50;99.90
18876;DHT22;9570;50.854;13.778;2023-04-24T13:07:02;15.80;99.90
18876;DHT22;9570;50.854;13.778;2023-04-24T13:09:28;16.00;99.90
18876;DHT22;9570;50.854;13.778;2023-04-24T13:11:54;16.00;99.90
18876;DHT22;9570;50.854;13.778;2023-04-24T13:14:19;16.10;99.90
18876;DHT22;9570;50.854;13.778;2023-04-24T13:16:45;15.90;99.90
18876;DHT22;9570;50.854;13.778;2023-04-24T13:19:10;16.00;99.90
18876;DHT22;9570;50.854;13.778;2023-04-24T13:21:36;15.80;99.90
18876;DHT22;9570;50.854;13.778;2023-04-24T13:24:01;15.90;99.90
18876;DHT22;9570;50.854;13.778;2023-04-24T13:26:28;15.80;99.90
18876;DHT22;9570;50.854;13.778;2023-04-24T13:28:54;15.50;99.90
18876;DHT22;9570;50.854;13.778;2023-04-24T13:31:19;15.70;99.90
18876;DHT22;9570;50.854;13.778;2023-04-24T13:33:45;15.70;99.90
18876;DHT22;9570;50.854;13.778;2023-04-24T13:36:10;15.70;99.90
18876;DHT22;9570;50.854;13.778;2023-04-24T13:38:36;15.70;99.90
18876;DHT22;9570;50.854;13.778;2023-04-24T13:41:02;15.70;99.90
18876;DHT22;9570;50.854;13.778;2023-04-24T13:43:27;16.00;99.90
18876;DHT22;9570;50.854;13.778;2023-04-24T13:45:53;15.90;99.90
18876;DHT22;9570;50.854;13.778;2023-04-24T13:48:18;15.80;99.90
18876;DHT22;9570;50.854;13.778;2023-04-24T13:50:44;15.50;99.90
18876;DHT22;9570;50.854;13.778;2023-04-24T13:53:10;15.60;99.90
18876;DHT22;9570;50.854;13.778;2023-04-24T13:55:35;15.60;99.90
18876;DHT22;9570;50.854;13.778;2023-04-24T13:58:01;15.40;99.90
18876;DHT22;9570;50.854;13.778;2023-04-24T14:00:27;15.40;99.90
18876;DHT22;9570;50.854;13.778;2023-04-24T14:02:53;15.50;99.90
18876;DHT22;9570;50.854;13.778;2023-04-24T14:05:18;15.40;99.90
18876;DHT22;9570;50.854;13.778;2023-04-24T14:07:44;15.40;99.90
18876;DHT22;9570;50.854;13.778;2023-04-24T14:10:10;15.40;99.90
18876;DHT22;9570;50.854;13.778;2023-04-24T14:12:35;15.50;99.90
18876;DHT22;9570;50.854;13.778;2023-04-24T14:15:01;15.50;99.90
18876;DHT22;9570;50.854;13.778;2023-04-24T14:17:27;15.40;99.90
18876;DHT22;9570;50.854;13.778;2023-04-24T14:19:52;15.60;99.90
18876;DHT22;9570;50.854;13.778;2023-04-24T14:22:21;15.80;99.90
18876;DHT22;9570;50.854;13.778;2023-04-24T14:24:46;15.60;99.90
18876;DHT22;9570;50.854;13.778;2023-04-24T14:27:12;15.50;99.90
18876;DHT22;9570;50.854;13.778;2023-04-24T14:29:37;15.70;99.90
18876;DHT22;9570;50.854;13.778;2023-04-24T14:32:03;15.80;99.90
18876;DHT22;9570;50.854;13.778;2023-04-24T14:34:28;15.90;99.90
18876;DHT22;9570;50.854;13.778;2023-04-24T14:36:54;15.80;99.90
18876;DHT22;9570;50.854;13.778;2023-04-24T14:39:19;15.60;99.90
18876;DHT22;9570;50.854;13.778;2023-04-24T14:41:45;15.60;99.90
18876;DHT22;9570;50.854;13.778;2023-04-24T14:44:11;15.70;99.90
18876;DHT22;9570;50.854;13.778;2023-04-24T14:46:36;15.60;99.90
18876;DHT22;9570;50.854;13.778;2023-04-24T14:49:02;15.60;99.90
18876;DHT22;9570;50.854;13.778;2023-04-24T14:51:27;15.50;99.90
18876;DHT22;9570;50.854;13.778;2023-04-24T14:53:53;15.40;99.90
18876;DHT22;9570;50.854;13.778;2023-04-24T14:56:18;15.30;99.90
18876;DHT22;9570;50.854;13.778;2023-04-24T14:58:44;15.40;99.90
18876;DHT22;9570;50.854;13.778;2023-04-24T15:01:10;15.20;99.90
18876;DHT22;9570;50.854;13.778;2023-04-24T15:03:36;15.10;99.90
18876;DHT22;9570;50.854;13.778;2023-04-24T15:06:01;15.00;99.90
18876;DHT22;9570;50.854;13.778;2023-04-24T15:08:27;14.90;99.90
18876;DHT22;9570;50.854;13.778;2023-04-24T15:10:52;14.80;99.90
18876;DHT22;9570;50.854;13.778;2023-04-24T15:13:18;15.00;99.90
18876;DHT22;9570;50.854;13.778;2023-04-24T15:15:46;14.90;99.90
18876;DHT22;9570;50.854;13.778;2023-04-24T15:18:12;14.80;99.90
18876;DHT22;9570;50.854;13.778;2023-04-24T15:20:38;14.80;99.90
18876;DHT22;9570;50.854;13.778;2023-04-24T15:23:08;14.80;99.90
18876;DHT22;9570;50.854;13.778;2023-04-24T15:25:34;14.60;99.90
18876;DHT22;9570;50.854;13.778;2023-04-24T15:27:59;14.80;99.90
18876;DHT22;9570;50.854;13.778;2023-04-24T15:30:26;14.80;99.90